createdAt,value
2023-01-13T00:01:00.176Z,64.72
2023-01-13T00:03:28.001Z,64.86
2023-01-13T00:05:55.708Z,65.13
2023-01-13T00:08:23.376Z,65.08
2023-01-13T00:10:51.037Z,65.10
2023-01-13T00:13:26.665Z,65.06
2023-01-13T00:15:58.102Z,65.08
2023-01-13T00:18:26.028Z,65.08
2023-01-13T00:21:20.139Z,65.09
2023-01-13T00:23:47.880Z,65.24
2023-01-13T00:26:19.794Z,65.36
2023-01-13T00:28:47.648Z,65.56
2023-01-13T00:31:16.443Z,65.47
2023-01-13T00:33:44.173Z,65.52
2023-01-13T00:36:12.728Z,65.70
2023-01-13T00:38:40.663Z,65.73
2023-01-13T00:41:12.248Z,65.85
2023-01-13T00:43:40.081Z,66.09
2023-01-13T00:46:08.506Z,66.33
2023-01-13T00:48:36.589Z,66.38
2023-01-13T00:51:14.970Z,66.53
2023-01-13T00:53:43.917Z,66.69
2023-01-13T00:56:11.571Z,66.81
2023-01-13T00:58:39.168Z,66.81
2023-01-13T01:01:07.964Z,67.03
2023-01-13T01:03:35.955Z,67.30
2023-01-13T01:06:05.367Z,67.33
2023-01-13T01:08:33.627Z,67.55
2023-01-13T01:11:02.454Z,67.55
2023-01-13T01:13:30.214Z,67.77
2023-01-13T01:15:58.097Z,67.81
2023-01-13T01:18:25.931Z,68.02
2023-01-13T01:20:53.575Z,68.25
2023-01-13T01:23:21.201Z,68.28
2023-01-13T01:25:48.824Z,68.18
2023-01-13T01:28:19.350Z,68.17
2023-01-13T01:30:47.041Z,68.12
2023-01-13T01:33:14.809Z,68.11
2023-01-13T01:35:43.051Z,68.30
2023-01-13T01:38:10.972Z,68.32
2023-01-13T01:40:38.675Z,68.33
2023-01-13T01:43:51.465Z,68.51
2023-01-13T01:46:19.207Z,68.26
2023-01-13T01:48:46.861Z,68.19
2023-01-13T01:51:14.587Z,68.15
2023-01-13T01:53:42.199Z,67.94
2023-01-13T01:56:09.807Z,67.72
2023-01-13T01:58:39.465Z,67.56
2023-01-13T02:01:07.245Z,67.45
2023-01-13T02:03:36.232Z,67.15
2023-01-13T02:06:04.160Z,67.13
2023-01-13T02:08:31.823Z,67.11
2023-01-13T02:10:59.456Z,67.05
2023-01-13T02:13:27.171Z,67.06
2023-01-13T02:16:15.123Z,67.07
2023-01-13T02:19:01.048Z,66.89
2023-01-13T02:21:31.869Z,66.81
2023-01-13T02:24:25.288Z,66.69
2023-01-13T02:27:12.331Z,66.60
2023-01-13T02:33:13.751Z,66.37
2023-01-13T02:35:51.489Z,66.11
2023-01-13T02:38:39.387Z,65.98
2023-01-13T02:41:37.585Z,65.93
2023-01-13T02:44:08.102Z,65.83
2023-01-13T02:46:41.972Z,65.73
2023-01-13T02:49:10.335Z,65.94
2023-01-13T02:51:37.983Z,66.26
2023-01-13T02:54:05.641Z,66.65
2023-01-13T02:56:35.456Z,67.05
2023-01-13T02:59:03.212Z,67.55
2023-01-13T03:01:31.053Z,67.61
2023-01-13T03:03:58.796Z,67.77
2023-01-13T03:06:29.777Z,68.00
2023-01-13T03:09:05.473Z,67.96
2023-01-13T03:11:34.890Z,67.92
2023-01-13T03:14:09.408Z,68.01
2023-01-13T03:16:38.423Z,68.01
2023-01-13T03:19:06.184Z,68.09
2023-01-13T03:21:52.668Z,68.05
2023-01-13T03:24:21.452Z,67.71
2023-01-13T03:26:50.424Z,67.58
2023-01-13T03:29:19.534Z,67.34
2023-01-13T03:32:05.520Z,67.26
2023-01-13T03:34:34.611Z,67.01
2023-01-13T03:37:03.495Z,67.15
2023-01-13T03:39:32.278Z,66.78
2023-01-13T03:42:01.873Z,66.61
2023-01-13T03:44:34.121Z,66.67
2023-01-13T03:47:13.011Z,66.47
2023-01-13T03:49:40.885Z,66.42
2023-01-13T03:52:09.783Z,66.29
2023-01-13T03:54:43.340Z,66.03
2023-01-13T03:57:12.036Z,65.85
2023-01-13T03:59:41.670Z,65.97
2023-01-13T04:02:11.222Z,65.82
2023-01-13T04:04:44.058Z,65.87
2023-01-13T04:07:24.756Z,65.85
2023-01-13T04:10:02.479Z,65.91
2023-01-13T04:12:52.511Z,66.00
2023-01-13T04:15:24.520Z,65.93
2023-01-13T04:17:52.963Z,66.05
2023-01-13T04:20:21.069Z,66.01
2023-01-13T04:22:48.704Z,66.07
2023-01-13T04:25:16.643Z,66.07
2023-01-13T04:27:44.839Z,66.06
2023-01-13T04:30:12.621Z,66.30
2023-01-13T04:32:40.551Z,66.41
2023-01-13T04:35:08.711Z,66.43
2023-01-13T04:37:36.437Z,66.34
2023-01-13T04:40:04.488Z,66.33
2023-01-13T04:42:32.122Z,66.10
2023-01-13T04:44:59.915Z,66.09
2023-01-13T04:47:27.609Z,66.11
2023-01-13T04:49:55.210Z,66.07
2023-01-13T04:52:22.942Z,65.91
2023-01-13T04:54:50.596Z,65.68
2023-01-13T04:57:18.327Z,65.58
2023-01-13T04:59:45.994Z,65.68
2023-01-13T05:02:19.953Z,65.60
2023-01-13T05:04:48.106Z,65.52
2023-01-13T05:07:16.412Z,65.69
2023-01-13T05:09:44.072Z,65.68
2023-01-13T05:12:31.204Z,65.58
2023-01-13T05:15:18.123Z,65.50
2023-01-13T05:17:46.185Z,65.58
2023-01-13T05:20:14.393Z,65.41
2023-01-13T05:23:01.224Z,65.26
2023-01-13T05:25:29.096Z,65.38
2023-01-13T05:27:57.943Z,65.35
2023-01-13T05:30:26.967Z,65.44
2023-01-13T05:32:54.636Z,65.57
2023-01-13T05:35:22.587Z,65.65
2023-01-13T05:37:50.584Z,65.61
2023-01-13T05:40:37.189Z,65.68
2023-01-13T05:43:21.360Z,65.78
2023-01-13T05:45:53.835Z,65.67
2023-01-13T05:48:22.005Z,65.63
2023-01-13T05:50:49.763Z,65.66
2023-01-13T05:53:17.879Z,65.44
2023-01-13T05:55:45.806Z,65.58
2023-01-13T05:58:14.540Z,65.68
2023-01-13T06:00:42.406Z,65.63
2023-01-13T06:03:10.670Z,65.61
2023-01-13T06:05:38.650Z,65.81
2023-01-13T06:08:06.946Z,65.72
2023-01-13T06:10:37.136Z,65.52
2023-01-13T06:13:04.964Z,65.40
2023-01-13T06:15:32.842Z,65.46
2023-01-13T06:18:02.227Z,65.36
2023-01-13T06:20:29.909Z,65.23
2023-01-13T06:22:57.725Z,65.27
2023-01-13T06:25:28.516Z,65.13
2023-01-13T06:27:59.127Z,65.10
2023-01-13T06:30:27.946Z,65.01
2023-01-13T06:32:55.917Z,64.87
2023-01-13T06:35:25.228Z,64.81
2023-01-13T06:37:53.576Z,64.75
2023-01-13T06:40:21.420Z,64.76
2023-01-13T06:43:07.727Z,64.99
2023-01-13T06:45:35.534Z,64.90
2023-01-13T06:48:03.234Z,65.01
2023-01-13T06:50:30.978Z,64.93
2023-01-13T06:52:58.608Z,64.84
2023-01-13T06:55:26.237Z,64.97
2023-01-13T06:57:54.996Z,64.92
2023-01-13T07:00:23.198Z,64.79
2023-01-13T07:02:50.950Z,64.77
2023-01-13T07:05:19.504Z,64.55
2023-01-13T07:07:47.190Z,64.52
2023-01-13T07:10:22.369Z,64.43
2023-01-13T07:13:08.906Z,64.45
2023-01-13T07:15:36.580Z,64.29
2023-01-13T07:18:04.251Z,64.41
2023-01-13T07:20:31.969Z,64.40
2023-01-13T07:22:59.678Z,64.38
2023-01-13T07:25:27.336Z,64.43
2023-01-13T07:27:57.167Z,64.53
2023-01-13T07:30:24.840Z,64.18
2023-01-13T07:32:52.582Z,64.29
2023-01-13T07:35:23.109Z,64.24
2023-01-13T07:37:50.804Z,64.22
2023-01-13T07:40:18.638Z,64.19
2023-01-13T07:43:05.299Z,63.98
2023-01-13T07:45:33.082Z,63.93
2023-01-13T07:48:00.752Z,63.84
2023-01-13T07:50:28.668Z,63.84
2023-01-13T07:52:59.235Z,63.75
2023-01-13T07:55:26.969Z,63.76
2023-01-13T07:57:54.710Z,63.79
2023-01-13T08:00:22.756Z,63.66
2023-01-13T08:02:50.444Z,63.68
2023-01-13T08:05:18.211Z,63.48
2023-01-13T08:07:45.824Z,63.49
2023-01-13T08:10:13.725Z,63.47
2023-01-13T08:13:00.533Z,63.68
2023-01-13T08:15:29.780Z,63.65
2023-01-13T08:17:58.294Z,63.56
2023-01-13T08:20:25.952Z,63.53
2023-01-13T08:22:57.944Z,63.38
2023-01-13T08:25:26.414Z,63.44
2023-01-13T08:27:54.107Z,63.44
2023-01-13T08:30:21.893Z,63.40
2023-01-13T08:32:50.073Z,63.21
2023-01-13T08:35:17.922Z,63.32
2023-01-13T08:37:45.781Z,63.29
2023-01-13T08:40:13.805Z,63.29
2023-01-13T08:42:41.442Z,63.24
2023-01-13T08:45:09.623Z,63.09
2023-01-13T08:47:37.279Z,63.03
2023-01-13T08:50:05.517Z,62.88
2023-01-13T08:52:33.316Z,62.81
2023-01-13T08:55:00.923Z,62.71
2023-01-13T08:57:28.778Z,62.43
2023-01-13T08:59:56.575Z,62.34
2023-01-13T09:02:24.422Z,62.35
2023-01-13T09:04:52.499Z,62.40
2023-01-13T09:07:20.271Z,62.51
2023-01-13T09:09:47.929Z,62.49
2023-01-13T09:12:34.724Z,62.43
2023-01-13T09:15:02.439Z,62.51
2023-01-13T09:17:30.277Z,62.38
2023-01-13T09:19:57.980Z,62.49
2023-01-13T09:22:27.203Z,62.35
2023-01-13T09:24:55.244Z,62.55
2023-01-13T09:27:23.045Z,62.46
2023-01-13T09:29:50.750Z,62.36
2023-01-13T09:32:18.446Z,62.43
2023-01-13T09:35:01.473Z,62.48
2023-01-13T09:37:30.004Z,62.37
2023-01-13T09:39:57.696Z,62.53
2023-01-13T09:42:46.410Z,62.26
2023-01-13T09:45:19.606Z,62.00
2023-01-13T09:47:47.468Z,61.94
2023-01-13T09:50:15.117Z,62.17
2023-01-13T09:52:43.186Z,62.01
2023-01-13T09:55:12.216Z,61.89
2023-01-13T09:57:40.267Z,61.70
2023-01-13T10:00:11.525Z,61.66
2023-01-13T10:02:42.685Z,61.26
2023-01-13T10:05:13.205Z,61.21
2023-01-13T10:07:42.815Z,60.49
2023-01-13T10:10:15.723Z,60.15
2023-01-13T10:13:02.671Z,60.03
2023-01-13T10:15:30.393Z,59.97
2023-01-13T10:18:15.736Z,59.92
2023-01-13T10:20:43.387Z,59.38
2023-01-13T10:23:34.261Z,59.51
2023-01-13T10:26:05.058Z,58.78
2023-01-13T10:28:32.792Z,58.70
2023-01-13T10:31:00.432Z,58.91
2023-01-13T10:33:28.576Z,58.88
2023-01-13T10:36:15.393Z,58.87
2023-01-13T10:38:43.087Z,58.95
2023-01-13T10:41:13.610Z,59.02
2023-01-13T10:43:44.991Z,59.22
2023-01-13T10:46:16.008Z,59.37
2023-01-13T10:48:44.609Z,59.76
2023-01-13T10:51:12.349Z,60.07
2023-01-13T10:53:49.429Z,59.97
2023-01-13T10:56:18.187Z,59.94
2023-01-13T10:58:46.005Z,60.22
2023-01-13T11:01:20.841Z,60.14
2023-01-13T11:03:48.848Z,60.18
2023-01-13T11:06:35.455Z,60.12
2023-01-13T11:09:03.250Z,60.11
2023-01-13T11:11:38.330Z,59.76
2023-01-13T11:14:27.109Z,59.78
2023-01-13T11:16:55.407Z,59.62
2023-01-13T11:19:23.075Z,59.36
2023-01-13T11:22:11.114Z,59.11
2023-01-13T11:24:40.319Z,59.15
2023-01-13T11:27:17.322Z,59.20
2023-01-13T11:30:09.574Z,58.14
2023-01-13T11:32:39.754Z,57.47
2023-01-13T11:35:15.135Z,57.35
2023-01-13T11:37:43.282Z,56.87
2023-01-13T11:40:28.360Z,56.49
2023-01-13T11:42:59.237Z,56.64
2023-01-13T11:45:26.820Z,57.01
2023-01-13T11:47:57.565Z,57.06
2023-01-13T11:50:31.332Z,57.48
2023-01-13T11:53:18.099Z,57.30
2023-01-13T11:56:26.912Z,57.03
2023-01-13T11:59:03.891Z,57.31
2023-01-13T12:01:35.460Z,56.79
2023-01-13T12:04:22.181Z,56.28
2023-01-13T12:06:57.265Z,56.20
2023-01-13T12:09:44.634Z,56.52
2023-01-13T12:12:22.963Z,56.83
2023-01-13T12:15:03.013Z,57.16
2023-01-13T12:18:00.021Z,57.36
2023-01-13T12:20:37.069Z,57.16
2023-01-13T12:23:06.592Z,56.76
2023-01-13T12:25:37.463Z,56.97
2023-01-13T12:28:14.718Z,56.68
2023-01-13T12:30:44.654Z,56.32
2023-01-13T12:33:18.930Z,55.06
2023-01-13T12:35:50.092Z,54.45
2023-01-13T12:38:21.223Z,53.45
2023-01-13T12:41:09.524Z,54.21
2023-01-13T12:43:55.872Z,54.42
2023-01-13T12:46:23.663Z,54.87
2023-01-13T12:48:57.308Z,55.28
2023-01-13T12:51:25.276Z,55.57
2023-01-13T12:53:53.193Z,55.71
2023-01-13T12:56:27.062Z,55.76
2023-01-13T12:59:13.555Z,55.68
2023-01-13T13:01:41.363Z,55.84
2023-01-13T13:04:22.157Z,56.15
2023-01-13T13:06:54.579Z,56.34
2023-01-13T13:09:29.354Z,56.91
2023-01-13T13:12:02.917Z,57.19
2023-01-13T13:14:43.619Z,57.81
2023-01-13T13:17:20.437Z,58.12
2023-01-13T13:19:48.654Z,58.45
2023-01-13T13:22:19.078Z,58.90
2023-01-13T13:24:49.763Z,59.37
2023-01-13T13:27:22.999Z,59.65
2023-01-13T13:30:09.533Z,59.89
2023-01-13T13:32:55.996Z,60.88
2023-01-13T13:35:40.091Z,62.58
2023-01-13T13:38:45.736Z,64.92
2023-01-13T13:41:33.131Z,66.41
2023-01-13T13:44:20.774Z,66.50
2023-01-13T13:46:49.112Z,67.35
2023-01-13T13:49:21.359Z,67.98
2023-01-13T13:51:55.256Z,68.63
2023-01-13T13:54:23.031Z,68.52
2023-01-13T13:56:50.719Z,69.41
2023-01-13T13:59:19.579Z,69.64
2023-01-13T14:01:50.272Z,70.35
2023-01-13T14:04:19.907Z,70.20
2023-01-13T14:06:51.937Z,70.47
2023-01-13T14:09:20.075Z,70.65
2023-01-13T14:11:56.438Z,70.70
2023-01-13T14:14:25.015Z,70.95
2023-01-13T14:16:54.937Z,70.67
2023-01-13T14:19:25.566Z,70.55
2023-01-13T14:21:53.320Z,70.74
2023-01-13T14:24:22.564Z,70.73
2023-01-13T14:26:52.051Z,70.62
2023-01-13T14:29:21.002Z,70.89
2023-01-13T14:31:49.413Z,70.79
2023-01-13T14:34:31.000Z,70.73
2023-01-13T14:36:59.998Z,70.93
2023-01-13T14:39:38.975Z,71.12
2023-01-13T14:42:13.397Z,71.26
2023-01-13T14:44:43.972Z,71.43
2023-01-13T14:47:18.104Z,71.56
2023-01-13T14:49:54.928Z,71.86
2023-01-13T14:52:23.498Z,72.18
2023-01-13T14:54:52.841Z,72.22
2023-01-13T14:57:25.471Z,72.50
2023-01-13T15:00:00.854Z,72.61
2023-01-13T15:02:34.041Z,72.91
2023-01-13T15:05:18.796Z,73.13
2023-01-13T15:07:53.616Z,72.95
2023-01-13T15:10:42.033Z,73.51
2023-01-13T15:13:21.737Z,73.42
2023-01-13T15:15:50.979Z,73.34
2023-01-13T15:18:18.644Z,73.41
2023-01-13T15:20:46.291Z,73.37
2023-01-13T15:23:14.225Z,73.40
2023-01-13T15:25:43.065Z,73.26
2023-01-13T15:28:15.111Z,73.21
2023-01-13T15:30:42.763Z,73.25
2023-01-13T15:33:12.493Z,73.27
2023-01-13T15:35:41.703Z,72.88
2023-01-13T15:38:10.361Z,72.25
2023-01-13T15:40:38.151Z,71.41
2023-01-13T15:43:24.647Z,71.30
2023-01-13T15:46:11.072Z,70.90
2023-01-13T15:48:38.902Z,70.45
2023-01-13T15:51:07.284Z,70.17
2023-01-13T15:53:36.909Z,70.20
2023-01-13T15:56:05.240Z,69.85
2023-01-13T15:58:32.920Z,69.97
2023-01-13T16:01:00.684Z,69.79
2023-01-13T16:03:28.448Z,69.63
2023-01-13T16:05:56.050Z,69.38
2023-01-13T16:08:23.790Z,68.98
2023-01-13T16:10:51.532Z,69.11
2023-01-13T16:13:19.198Z,68.97
2023-01-13T16:15:49.816Z,68.97
2023-01-13T16:18:18.726Z,68.80
2023-01-13T16:20:46.772Z,68.69
2023-01-13T16:23:14.507Z,68.71
2023-01-13T16:25:44.719Z,68.69
2023-01-13T16:28:17.259Z,68.63
2023-01-13T16:30:44.995Z,68.65
2023-01-13T16:33:12.631Z,68.84
2023-01-13T16:36:09.263Z,68.78
2023-01-13T16:38:28.298Z,68.69
2023-01-13T16:40:56.896Z,68.74
2023-01-13T16:43:24.537Z,68.79
2023-01-13T16:45:52.186Z,68.57
2023-01-13T16:48:20.213Z,68.63
2023-01-13T16:50:47.878Z,68.57
2023-01-13T16:53:15.648Z,68.36
2023-01-13T16:55:43.497Z,68.14
2023-01-13T16:58:15.807Z,68.31
2023-01-13T17:00:46.737Z,68.26
2023-01-13T17:03:17.640Z,68.03
2023-01-13T17:05:46.983Z,67.79
2023-01-13T17:08:18.990Z,67.64
2023-01-13T17:10:47.070Z,67.62
2023-01-13T17:13:16.769Z,67.50
2023-01-13T17:15:45.344Z,67.19
2023-01-13T17:18:13.604Z,67.17
2023-01-13T17:20:41.620Z,66.92
2023-01-13T17:23:09.324Z,66.93
2023-01-13T17:25:36.972Z,66.85
2023-01-13T17:28:04.691Z,66.82
2023-01-13T17:30:32.788Z,66.66
2023-01-13T17:33:00.745Z,66.14
2023-01-13T17:35:28.516Z,66.13
2023-01-13T17:37:56.979Z,66.27
2023-01-13T17:40:24.634Z,66.24
2023-01-13T17:42:52.347Z,66.22
2023-01-13T17:45:20.048Z,66.26
2023-01-13T17:47:47.789Z,66.38
2023-01-13T17:50:16.615Z,66.33
2023-01-13T17:52:45.974Z,66.36
2023-01-13T17:55:13.569Z,66.28
2023-01-13T17:57:41.158Z,66.14
2023-01-13T18:00:09.090Z,66.27
2023-01-13T18:02:42.771Z,66.09
2023-01-13T18:05:10.540Z,66.09
2023-01-13T18:07:38.269Z,65.96
2023-01-13T18:10:06.258Z,65.83
2023-01-13T18:12:34.868Z,65.79
2023-01-13T18:15:02.612Z,65.98
2023-01-13T18:17:30.248Z,65.73
2023-01-13T18:20:16.437Z,65.70
2023-01-13T18:23:02.630Z,65.72
2023-01-13T18:25:48.949Z,65.75
2023-01-13T18:28:16.954Z,65.65
2023-01-13T18:30:44.637Z,65.58
2023-01-13T18:33:12.303Z,65.51
2023-01-13T18:35:39.925Z,65.43
2023-01-13T18:38:08.418Z,65.19
2023-01-13T18:40:36.106Z,64.92
2023-01-13T18:43:03.723Z,64.88
2023-01-13T18:45:31.818Z,64.59
2023-01-13T18:48:00.571Z,64.65
2023-01-13T18:50:28.552Z,64.67
2023-01-13T18:52:56.329Z,64.54
2023-01-13T18:55:24.765Z,64.21
2023-01-13T18:57:53.403Z,64.37
2023-01-13T19:00:21.528Z,64.37
2023-01-13T19:05:34.531Z,64.32
2023-01-13T19:08:02.942Z,64.22
2023-01-13T19:10:32.336Z,63.82
2023-01-13T19:13:01.383Z,63.93
2023-01-13T19:15:29.334Z,63.79
2023-01-13T19:17:57.091Z,63.61
2023-01-13T19:20:24.761Z,63.96
2023-01-13T19:22:54.438Z,63.88
2023-01-13T19:25:22.225Z,64.02
2023-01-13T19:27:49.914Z,64.16
2023-01-13T19:30:17.788Z,64.05
2023-01-13T19:32:45.527Z,64.01
2023-01-13T19:35:17.344Z,64.17
2023-01-13T19:37:45.566Z,64.15
2023-01-13T19:40:13.859Z,64.18
2023-01-13T19:43:03.152Z,64.04
2023-01-13T19:45:32.161Z,64.02
2023-01-13T19:48:05.091Z,63.95
2023-01-13T19:50:37.372Z,63.88
2023-01-13T19:53:05.387Z,63.85
2023-01-13T19:55:33.110Z,63.82
2023-01-13T19:58:00.868Z,63.96
2023-01-13T20:00:29.155Z,64.00
2023-01-13T20:03:03.005Z,63.97
2023-01-13T20:05:30.813Z,63.91
2023-01-13T20:07:58.560Z,63.92
2023-01-13T20:10:26.243Z,63.91
2023-01-13T20:12:53.893Z,64.07
2023-01-13T20:15:21.594Z,64.05
2023-01-13T20:17:49.317Z,64.02
2023-01-13T20:20:18.525Z,64.22
2023-01-13T20:22:46.279Z,64.13
2023-01-13T20:25:16.989Z,64.28
2023-01-13T20:27:45.394Z,64.44
2023-01-13T20:30:14.404Z,64.45
2023-01-13T20:32:43.452Z,64.35
2023-01-13T20:35:11.354Z,64.54
2023-01-13T20:37:39.426Z,64.63
2023-01-13T20:40:07.599Z,64.57
2023-01-13T20:42:47.280Z,64.50
2023-01-13T20:45:17.741Z,64.81
2023-01-13T20:47:45.590Z,64.82
2023-01-13T20:50:13.351Z,64.45
2023-01-13T20:52:41.078Z,63.96
2023-01-13T20:55:09.098Z,64.03
2023-01-13T20:57:36.783Z,63.98
2023-01-13T21:00:05.856Z,63.76
2023-01-13T21:02:33.611Z,63.56
2023-01-13T21:05:01.293Z,62.69
2023-01-13T21:07:28.992Z,62.58
2023-01-13T21:09:57.808Z,63.02
2023-01-13T21:12:44.312Z,62.77
2023-01-13T21:15:18.490Z,62.64
2023-01-13T21:18:05.079Z,62.41
2023-01-13T21:20:33.546Z,62.46
2023-01-13T21:23:01.723Z,62.55
2023-01-13T21:25:29.564Z,62.42
2023-01-13T21:28:05.702Z,62.50
2023-01-13T21:30:33.509Z,62.55
2023-01-13T21:33:02.489Z,62.52
2023-01-13T21:35:30.134Z,62.43
2023-01-13T21:37:57.815Z,62.53
2023-01-13T21:40:25.583Z,62.51
2023-01-13T21:43:12.405Z,62.65
2023-01-13T21:45:58.898Z,62.57
2023-01-13T21:48:26.895Z,62.37
2023-01-13T21:50:54.683Z,62.60
2023-01-13T21:53:22.309Z,62.45
2023-01-13T21:55:50.713Z,62.69
2023-01-13T21:58:18.414Z,62.64
2023-01-13T22:00:46.382Z,62.74
2023-01-13T22:03:18.721Z,62.68
2023-01-13T22:05:47.148Z,62.52
2023-01-13T22:08:14.863Z,62.57
2023-01-13T22:10:57.727Z,62.53
2023-01-13T22:13:44.964Z,62.79
2023-01-13T22:16:12.751Z,62.56
2023-01-13T22:18:40.440Z,62.42
2023-01-13T22:21:08.296Z,62.45
2023-01-13T22:23:36.204Z,62.24
2023-01-13T22:26:04.352Z,62.23
2023-01-13T22:28:40.024Z,61.91
2023-01-13T22:31:12.284Z,62.07
2023-01-13T22:33:40.620Z,61.87
2023-01-13T22:36:08.942Z,61.65
2023-01-13T22:38:36.737Z,61.43
2023-01-13T22:41:06.220Z,61.38
2023-01-13T22:43:34.293Z,61.34
2023-01-13T22:46:02.945Z,61.55
2023-01-13T22:48:30.673Z,61.40
2023-01-13T22:51:04.301Z,61.45
2023-01-13T22:53:32.287Z,61.53
2023-01-13T22:56:00.260Z,61.44
2023-01-13T22:58:28.317Z,61.30
2023-01-13T23:00:56.407Z,61.50
2023-01-13T23:03:26.425Z,61.50
2023-01-13T23:05:57.808Z,61.40
2023-01-13T23:08:25.710Z,61.58
2023-01-13T23:10:59.704Z,61.64
2023-01-13T23:13:27.698Z,61.58
2023-01-13T23:15:55.399Z,61.47
2023-01-13T23:18:24.627Z,61.59
2023-01-13T23:20:52.282Z,61.55
2023-01-13T23:23:20.325Z,61.85
2023-01-13T23:25:53.451Z,61.61
2023-01-13T23:28:22.260Z,61.68
2023-01-13T23:30:51.620Z,61.69
2023-01-13T23:33:19.764Z,61.78
2023-01-13T23:35:57.653Z,61.99
2023-01-13T23:38:25.511Z,61.85
2023-01-13T23:40:53.183Z,61.71
2023-01-13T23:43:21.020Z,61.86
2023-01-13T23:45:48.860Z,61.72
2023-01-13T23:48:18.552Z,61.98
2023-01-13T23:50:56.044Z,61.92
2023-01-13T23:53:24.132Z,61.99
2023-01-13T23:55:56.580Z,62.14
2023-01-13T23:58:24.203Z,62.03
